createdAt,value
2018-11-21T00:03:56.258Z,99210.98
2018-11-21T00:10:01.804Z,99205.34
2018-11-21T00:16:06.440Z,99210.95
2018-11-21T00:22:11.109Z,99212.11
2018-11-21T00:28:15.733Z,99222.21
2018-11-21T00:34:20.399Z,99218.59
2018-11-21T00:40:25.026Z,99211.00
2018-11-21T00:46:29.677Z,99227.30
2018-11-21T00:52:34.287Z,99230.91
2018-11-21T00:58:38.926Z,99233.59
2018-11-21T01:04:43.550Z,99236.46
2018-11-21T01:10:48.194Z,99236.27
2018-11-21T01:16:52.862Z,99241.23
2018-11-21T01:22:57.480Z,99242.38
2018-11-21T01:29:02.095Z,99247.37
2018-11-21T01:35:07.806Z,99247.09
2018-11-21T01:41:12.950Z,99244.11
2018-11-21T01:47:17.604Z,99245.49
2018-11-21T01:53:22.281Z,99248.17
2018-11-21T01:59:26.871Z,99247.48
2018-11-21T02:05:31.530Z,99245.93
2018-11-21T02:11:36.170Z,99258.05
2018-11-21T02:17:40.789Z,99258.11
2018-11-21T02:23:45.421Z,99260.86
2018-11-21T02:29:50.051Z,99261.09
2018-11-21T02:35:54.681Z,99259.64
2018-11-21T02:41:59.294Z,99257.13
2018-11-21T02:48:03.941Z,99259.77
2018-11-21T02:54:08.577Z,99254.47
2018-11-21T03:00:22.369Z,99252.65
2018-11-21T03:06:26.966Z,99257.75
2018-11-21T03:12:32.254Z,99254.94
2018-11-21T03:18:36.954Z,99254.94
2018-11-21T03:24:41.603Z,99274.07
2018-11-21T03:30:46.231Z,99290.25
2018-11-21T03:36:52.163Z,99298.61
2018-11-21T03:42:56.779Z,99309.30
2018-11-21T03:49:01.419Z,99314.51
2018-11-21T03:55:06.927Z,99322.17
2018-11-21T04:01:11.568Z,99336.16
2018-11-21T04:13:20.837Z,99349.41
2018-11-21T04:19:25.501Z,99339.67
2018-11-21T04:25:30.155Z,99348.83
2018-11-21T04:31:34.776Z,99347.63
2018-11-21T04:37:39.414Z,99349.58
2018-11-21T04:43:44.035Z,99354.75
2018-11-21T04:49:48.646Z,99356.08
2018-11-21T04:55:53.259Z,99375.23
2018-11-21T05:01:57.885Z,99385.22
2018-11-21T05:08:02.517Z,99387.50
2018-11-21T05:14:07.387Z,99392.02
2018-11-21T05:20:12.025Z,99392.13
2018-11-21T05:26:16.670Z,99397.57
2018-11-21T05:32:21.293Z,99395.77
2018-11-21T05:38:25.925Z,99405.48
2018-11-21T05:44:31.530Z,99397.22
2018-11-21T05:50:35.596Z,99413.50
2018-11-21T05:56:40.232Z,99422.05
2018-11-21T06:02:45.824Z,99426.45
2018-11-21T06:08:50.451Z,99435.68
2018-11-21T06:14:55.143Z,99441.19
2018-11-21T06:20:59.805Z,99444.65
2018-11-21T06:27:04.668Z,99448.49
2018-11-21T06:33:09.311Z,99462.06
2018-11-21T06:39:13.935Z,99459.86
2018-11-21T06:45:18.654Z,99475.20
2018-11-21T06:51:23.289Z,99484.13
2018-11-21T06:57:30.134Z,99485.34
2018-11-21T07:03:34.766Z,99494.95
2018-11-21T07:09:39.433Z,99501.91
2018-11-21T07:15:44.047Z,99513.66
2018-11-21T07:21:48.676Z,99515.36
2018-11-21T07:27:53.278Z,99532.26
2018-11-21T07:33:57.897Z,99533.91
2018-11-21T07:40:02.503Z,99538.39
2018-11-21T07:46:07.141Z,99540.83
2018-11-21T07:52:11.787Z,99551.09
2018-11-21T07:58:18.451Z,99551.47
2018-11-21T08:04:31.046Z,99550.91
2018-11-21T08:10:54.653Z,99553.66
2018-11-21T08:17:16.858Z,99552.16
2018-11-21T08:23:39.292Z,99560.91
2018-11-21T08:29:43.900Z,99560.22
2018-11-21T08:35:48.680Z,99558.69
2018-11-21T08:41:53.315Z,99572.12
2018-11-21T08:47:58.109Z,99561.80
2018-11-21T08:54:02.749Z,99562.53
2018-11-21T09:00:10.747Z,99571.00
2018-11-21T09:06:15.375Z,99571.39
2018-11-21T09:12:20.033Z,99580.31
2018-11-21T09:18:24.656Z,99588.83
2018-11-21T09:24:29.320Z,99589.15
2018-11-21T09:30:33.965Z,99594.77
2018-11-21T09:36:38.561Z,99594.53
2018-11-21T09:42:44.430Z,99593.80
2018-11-21T09:48:49.073Z,99594.33
2018-11-21T09:54:53.700Z,99591.07
2018-11-21T10:01:53.458Z,99603.08
2018-11-21T10:08:16.822Z,99612.27
2018-11-21T10:14:21.513Z,99612.11
2018-11-21T10:20:26.142Z,99620.33
2018-11-21T10:26:30.788Z,99615.58
2018-11-21T10:32:35.430Z,99612.42
2018-11-21T10:38:40.054Z,99615.97
2018-11-21T10:44:44.673Z,99622.00
2018-11-21T10:50:49.301Z,99621.47
2018-11-21T10:56:53.933Z,99613.80
2018-11-21T11:03:04.958Z,99613.09
2018-11-21T11:09:33.892Z,99616.91
2018-11-21T11:16:13.075Z,99625.08
2018-11-21T11:22:42.673Z,99627.70
2018-11-21T11:29:12.409Z,99630.72
2018-11-21T11:35:48.264Z,99633.38
2018-11-21T11:42:23.962Z,99644.78
2018-11-21T11:48:46.096Z,99647.67
2018-11-21T11:55:12.772Z,99642.83
2018-11-21T12:01:35.036Z,99651.52
2018-11-21T12:08:04.509Z,99651.52
2018-11-21T12:14:33.951Z,99649.73
2018-11-21T12:20:56.360Z,99646.02
2018-11-21T12:27:18.499Z,99638.28
2018-11-21T12:33:40.909Z,99636.38
2018-11-21T12:40:03.386Z,99643.41
2018-11-21T12:46:21.723Z,99643.69
2018-11-21T12:52:54.224Z,99640.20
2018-11-21T12:59:17.835Z,99638.41
2018-11-21T13:05:44.378Z,99639.92
2018-11-21T13:12:13.780Z,99639.45
2018-11-21T13:18:46.434Z,99642.86
2018-11-21T13:25:10.012Z,99657.05
2018-11-21T13:31:45.486Z,99659.46
2018-11-21T13:38:09.082Z,99664.34
2018-11-21T13:44:35.808Z,99671.19
2018-11-21T13:51:17.661Z,99666.64
2018-11-21T13:57:22.293Z,99672.55
2018-11-21T14:03:27.023Z,99663.61
2018-11-21T14:09:31.782Z,99660.79
2018-11-21T14:15:36.403Z,99658.06
2018-11-21T14:21:41.058Z,99662.21
2018-11-21T14:27:45.911Z,99666.16
2018-11-21T14:33:50.344Z,99665.05
2018-11-21T14:39:55.005Z,99674.33
2018-11-21T14:45:59.624Z,99682.83
2018-11-21T14:52:04.269Z,99691.45
2018-11-21T14:58:08.890Z,99692.97
2018-11-21T15:04:13.556Z,99704.07
2018-11-21T15:10:18.270Z,99705.76
2018-11-21T15:16:22.920Z,99705.42
2018-11-21T15:22:27.564Z,99714.59
2018-11-21T15:28:32.425Z,99711.37
2018-11-21T15:34:37.087Z,99714.48
2018-11-21T15:40:46.932Z,99715.38
2018-11-21T15:46:46.395Z,99713.98
2018-11-21T15:52:53.014Z,99716.94
2018-11-21T15:58:55.647Z,99723.67
2018-11-21T16:05:00.677Z,99728.16
2018-11-21T16:11:05.286Z,99742.08
2018-11-21T16:17:09.902Z,99744.06
2018-11-21T16:23:14.529Z,99744.00
2018-11-21T16:29:19.196Z,99745.02
2018-11-21T16:35:23.881Z,99754.92
2018-11-21T16:41:28.544Z,99763.09
2018-11-21T16:47:33.176Z,99771.47
2018-11-21T16:53:37.792Z,99778.19
2018-11-21T16:59:42.439Z,99783.10
2018-11-21T17:05:47.088Z,99782.42
2018-11-21T17:11:51.765Z,99791.40
2018-11-21T17:17:56.422Z,99797.35
2018-11-21T17:24:01.063Z,99800.66
2018-11-21T17:30:08.315Z,99799.83
2018-11-21T17:36:12.951Z,99802.05
2018-11-21T17:42:17.600Z,99807.12
2018-11-21T17:48:22.243Z,99809.81
2018-11-21T17:54:26.885Z,99811.88
2018-11-21T18:00:32.411Z,99824.84
2018-11-21T18:06:37.070Z,99824.00
2018-11-21T18:12:42.064Z,99827.45
2018-11-21T18:18:46.736Z,99825.81
2018-11-21T18:24:51.368Z,99832.39
2018-11-21T18:30:56.094Z,99837.49
2018-11-21T18:37:00.732Z,99843.72
2018-11-21T18:43:05.506Z,99840.70
2018-11-21T18:49:10.173Z,99844.49
2018-11-21T18:55:18.128Z,99842.88
2018-11-21T19:01:22.775Z,99851.39
2018-11-21T19:07:27.429Z,99861.72
2018-11-21T19:13:32.463Z,99859.00
2018-11-21T19:19:37.162Z,99863.16
2018-11-21T19:25:41.863Z,99860.81
2018-11-21T19:31:46.536Z,99878.22
2018-11-21T19:37:51.175Z,99861.60
2018-11-21T19:43:55.815Z,99865.16
2018-11-21T19:50:00.474Z,99869.20
2018-11-21T19:56:05.161Z,99874.58
2018-11-21T20:02:09.801Z,99873.76
2018-11-21T20:08:14.408Z,99873.34
2018-11-21T20:14:19.085Z,99873.48
2018-11-21T20:20:24.198Z,99872.99
2018-11-21T20:26:28.851Z,99866.45
2018-11-21T20:32:33.504Z,99867.62
2018-11-21T20:38:38.152Z,99867.55
2018-11-21T20:44:42.799Z,99872.02
2018-11-21T20:50:47.447Z,99860.52
2018-11-21T20:56:52.107Z,99874.33
2018-11-21T21:02:56.903Z,99871.11
2018-11-21T21:09:01.614Z,99875.58
2018-11-21T21:15:08.436Z,99878.97
2018-11-21T21:21:15.848Z,99882.25
2018-11-21T21:27:17.750Z,99871.52
2018-11-21T21:33:22.403Z,99880.44
2018-11-21T21:39:27.045Z,99883.77
2018-11-21T21:45:32.262Z,99886.73
2018-11-21T21:51:36.936Z,99886.84
2018-11-21T21:57:41.581Z,99887.01
2018-11-21T22:03:46.285Z,99888.05
2018-11-21T22:09:50.973Z,99890.64
2018-11-21T22:15:55.601Z,99893.14
2018-11-21T22:22:00.283Z,99885.67
2018-11-21T22:28:04.943Z,99892.30
2018-11-21T22:34:09.595Z,99893.87
2018-11-21T22:40:15.698Z,99881.88
2018-11-21T22:46:20.318Z,99882.45
2018-11-21T22:52:24.975Z,99886.72
2018-11-21T22:58:29.629Z,99887.67
2018-11-21T23:04:34.265Z,99879.80
2018-11-21T23:10:38.894Z,99882.13
2018-11-21T23:16:43.528Z,99880.72
2018-11-21T23:22:48.169Z,99880.86
2018-11-21T23:28:52.959Z,99877.40
2018-11-21T23:34:57.655Z,99878.03
2018-11-21T23:41:02.288Z,99880.81
2018-11-21T23:47:06.914Z,99880.66
2018-11-21T23:53:11.527Z,99882.05
2018-11-21T23:59:16.225Z,99890.39
